sensor_id;sensor_type;location;lat;lon;timestamp;temperature;humidity
33149;DHT22;19506;51.040;3.856;2023-05-10T14:31:12;18.70;99.90
33149;DHT22;19506;51.040;3.856;2023-05-10T14:33:39;18.70;99.90
33149;DHT22;19506;51.040;3.856;2023-05-10T14:36:06;18.80;99.90
33149;DHT22;19506;51.040;3.856;2023-05-10T14:38:31;18.90;99.90
33149;DHT22;19506;51.040;3.856;2023-05-10T14:40:57;19.10;99.90
33149;DHT22;19506;51.040;3.856;2023-05-10T14:43:23;19.30;99.90
33149;DHT22;19506;51.040;3.856;2023-05-10T14:45:48;19.40;99.90
33149;DHT22;19506;51.040;3.856;2023-05-10T14:48:14;19.40;99.90
33149;DHT22;19506;51.040;3.856;2023-05-10T14:50:43;19.50;99.90
33149;DHT22;19506;51.040;3.856;2023-05-10T14:53:08;19.50;99.90
33149;DHT22;19506;51.040;3.856;2023-05-10T14:55:34;19.60;99.90
33149;DHT22;19506;51.040;3.856;2023-05-10T14:58:01;19.50;99.90
33149;DHT22;19506;51.040;3.856;2023-05-10T15:00:28;19.40;99.90
33149;DHT22;19506;51.040;3.856;2023-05-10T15:02:54;19.40;99.90
33149;DHT22;19506;51.040;3.856;2023-05-10T15:05:20;19.40;99.90
33149;DHT22;19506;51.040;3.856;2023-05-10T15:07:45;19.40;99.90
33149;DHT22;19506;51.040;3.856;2023-05-10T15:10:11;19.40;99.90
33149;DHT22;19506;51.040;3.856;2023-05-10T15:12:37;19.40;99.90
33149;DHT22;19506;51.040;3.856;2023-05-10T15:15:04;19.70;99.90
33149;DHT22;19506;51.040;3.856;2023-05-10T15:17:30;19.90;99.90
33149;DHT22;19506;51.040;3.856;2023-05-10T15:19:56;19.90;99.90
33149;DHT22;19506;51.040;3.856;2023-05-10T15:22:21;20.10;99.90
33149;DHT22;19506;51.040;3.856;2023-05-10T15:24:47;20.20;99.90
33149;DHT22;19506;51.040;3.856;2023-05-10T15:27:13;20.20;99.90
33149;DHT22;19506;51.040;3.856;2023-05-10T15:29:38;20.10;99.90
33149;DHT22;19506;51.040;3.856;2023-05-10T15:32:04;20.00;99.90
33149;DHT22;19506;51.040;3.856;2023-05-10T15:34:30;20.10;99.90
33149;DHT22;19506;51.040;3.856;2023-05-10T15:36:55;20.20;99.90
33149;DHT22;19506;51.040;3.856;2023-05-10T15:39:21;20.20;99.90
33149;DHT22;19506;51.040;3.856;2023-05-10T15:41:47;20.20;99.90
33149;DHT22;19506;51.040;3.856;2023-05-10T15:44:13;20.20;99.90
33149;DHT22;19506;51.040;3.856;2023-05-10T15:51:31;20.40;99.90
33149;DHT22;19506;51.040;3.856;2023-05-10T15:53:58;20.30;99.90
33149;DHT22;19506;51.040;3.856;2023-05-10T15:56:23;20.20;99.90
33149;DHT22;19506;51.040;3.856;2023-05-10T15:58:49;20.10;99.90
33149;DHT22;19506;51.040;3.856;2023-05-10T16:01:15;20.10;99.90
33149;DHT22;19506;51.040;3.856;2023-05-10T16:03:41;20.00;99.90
33149;DHT22;19506;51.040;3.856;2023-05-10T16:06:07;20.10;99.90
33149;DHT22;19506;51.040;3.856;2023-05-10T16:08:33;20.30;99.90
33149;DHT22;19506;51.040;3.856;2023-05-10T16:10:59;20.10;99.90
33149;DHT22;19506;51.040;3.856;2023-05-10T16:13:25;20.00;99.90
33149;DHT22;19506;51.040;3.856;2023-05-10T16:15:51;20.00;99.90
33149;DHT22;19506;51.040;3.856;2023-05-10T16:18:17;20.10;99.90
33149;DHT22;19506;51.040;3.856;2023-05-10T16:20:43;20.00;99.90
33149;DHT22;19506;51.040;3.856;2023-05-10T16:23:09;20.00;99.90
33149;DHT22;19506;51.040;3.856;2023-05-10T16:25:35;20.00;99.90
33149;DHT22;19506;51.040;3.856;2023-05-10T16:28:01;20.10;99.90
33149;DHT22;19506;51.040;3.856;2023-05-10T16:30:27;19.80;99.90
33149;DHT22;19506;51.040;3.856;2023-05-10T16:32:55;20.00;99.90
33149;DHT22;19506;51.040;3.856;2023-05-10T16:35:21;19.50;99.90
33149;DHT22;19506;51.040;3.856;2023-05-10T16:37:48;19.80;99.90
33149;DHT22;19506;51.040;3.856;2023-05-10T16:40:14;19.80;99.90
33149;DHT22;19506;51.040;3.856;2023-05-10T16:42:40;19.50;99.90
33149;DHT22;19506;51.040;3.856;2023-05-10T16:45:06;19.60;99.90
33149;DHT22;19506;51.040;3.856;2023-05-10T16:47:32;19.40;99.90
33149;DHT22;19506;51.040;3.856;2023-05-10T16:49:59;19.20;99.90
33149;DHT22;19506;51.040;3.856;2023-05-10T16:52:26;19.10;99.90
33149;DHT22;19506;51.040;3.856;2023-05-10T16:54:55;19.10;99.90
33149;DHT22;19506;51.040;3.856;2023-05-10T16:57:21;19.10;99.90
33149;DHT22;19506;51.040;3.856;2023-05-10T16:59:47;19.10;99.90
33149;DHT22;19506;51.040;3.856;2023-05-10T17:02:13;19.10;99.90
33149;DHT22;19506;51.040;3.856;2023-05-10T17:04:39;19.20;99.90
33149;DHT22;19506;51.040;3.856;2023-05-10T17:07:05;19.40;99.90
33149;DHT22;19506;51.040;3.856;2023-05-10T17:09:30;19.30;99.90
33149;DHT22;19506;51.040;3.856;2023-05-10T17:11:56;19.50;99.90
33149;DHT22;19506;51.040;3.856;2023-05-10T17:14:22;19.60;99.90
33149;DHT22;19506;51.040;3.856;2023-05-10T17:16:47;19.50;99.90
33149;DHT22;19506;51.040;3.856;2023-05-10T17:19:14;19.50;99.90
33149;DHT22;19506;51.040;3.856;2023-05-10T17:21:39;19.40;99.90
33149;DHT22;19506;51.040;3.856;2023-05-10T17:24:05;19.50;99.90
33149;DHT22;19506;51.040;3.856;2023-05-10T17:26:31;19.50;99.90
33149;DHT22;19506;51.040;3.856;2023-05-10T17:28:57;19.30;99.90
33149;DHT22;19506;51.040;3.856;2023-05-10T17:31:23;19.40;99.90
33149;DHT22;19506;51.040;3.856;2023-05-10T17:33:48;19.50;99.90
33149;DHT22;19506;51.040;3.856;2023-05-10T17:36:14;19.60;99.90
33149;DHT22;19506;51.040;3.856;2023-05-10T17:38:40;19.80;99.90
33149;DHT22;19506;51.040;3.856;2023-05-10T17:41:07;19.90;99.90
33149;DHT22;19506;51.040;3.856;2023-05-10T17:43:32;19.90;99.90
33149;DHT22;19506;51.040;3.856;2023-05-10T17:45:58;20.00;99.90
33149;DHT22;19506;51.040;3.856;2023-05-10T17:48:23;20.00;99.90
33149;DHT22;19506;51.040;3.856;2023-05-10T17:50:49;20.00;99.90
33149;DHT22;19506;51.040;3.856;2023-05-10T17:53:15;20.10;99.90
33149;DHT22;19506;51.040;3.856;2023-05-10T17:55:41;20.10;99.90
33149;DHT22;19506;51.040;3.856;2023-05-10T17:58:10;20.10;99.90
33149;DHT22;19506;51.040;3.856;2023-05-10T18:00:36;20.10;99.90
33149;DHT22;19506;51.040;3.856;2023-05-10T18:03:03;20.20;99.90
33149;DHT22;19506;51.040;3.856;2023-05-10T18:05:29;20.20;99.90
33149;DHT22;19506;51.040;3.856;2023-05-10T18:07:54;20.20;99.90
33149;DHT22;19506;51.040;3.856;2023-05-10T18:10:21;20.20;99.90
33149;DHT22;19506;51.040;3.856;2023-05-10T18:12:47;20.20;99.90
33149;DHT22;19506;51.040;3.856;2023-05-10T18:15:15;20.20;99.90
33149;DHT22;19506;51.040;3.856;2023-05-10T18:17:41;20.10;99.90
33149;DHT22;19506;51.040;3.856;2023-05-10T18:20:07;20.00;99.90
33149;DHT22;19506;51.040;3.856;2023-05-10T18:22:34;20.00;99.90
33149;DHT22;19506;51.040;3.856;2023-05-10T18:25:00;19.90;99.90
33149;DHT22;19506;51.040;3.856;2023-05-10T18:27:25;19.80;99.90
33149;DHT22;19506;51.040;3.856;2023-05-10T18:29:51;19.90;99.90
33149;DHT22;19506;51.040;3.856;2023-05-10T18:32:17;19.80;99.90
33149;DHT22;19506;51.040;3.856;2023-05-10T18:34:42;19.90;99.90
33149;DHT22;19506;51.040;3.856;2023-05-10T18:37:08;19.80;99.90
33149;DHT22;19506;51.040;3.856;2023-05-10T18:39:37;19.90;99.90
33149;DHT22;19506;51.040;3.856;2023-05-10T18:42:04;19.80;99.90
33149;DHT22;19506;51.040;3.856;2023-05-10T18:44:30;19.80;99.90
33149;DHT22;19506;51.040;3.856;2023-05-10T18:46:55;19.80;99.90
33149;DHT22;19506;51.040;3.856;2023-05-10T18:49:23;19.80;99.90
33149;DHT22;19506;51.040;3.856;2023-05-10T18:51:49;19.80;99.90
33149;DHT22;19506;51.040;3.856;2023-05-10T18:54:15;19.90;99.90
33149;DHT22;19506;51.040;3.856;2023-05-10T18:56:41;19.90;99.90
33149;DHT22;19506;51.040;3.856;2023-05-10T18:59:10;19.90;99.90
33149;DHT22;19506;51.040;3.856;2023-05-10T19:01:36;20.00;99.90
33149;DHT22;19506;51.040;3.856;2023-05-10T19:04:01;20.30;99.90
33149;DHT22;19506;51.040;3.856;2023-05-10T19:06:27;20.50;99.90
33149;DHT22;19506;51.040;3.856;2023-05-10T19:08:53;20.50;99.90
33149;DHT22;19506;51.040;3.856;2023-05-10T19:11:19;20.50;99.90
33149;DHT22;19506;51.040;3.856;2023-05-10T19:13:46;20.60;99.90
33149;DHT22;19506;51.040;3.856;2023-05-10T19:16:13;20.80;99.90
33149;DHT22;19506;51.040;3.856;2023-05-10T19:18:41;20.90;99.90
33149;DHT22;19506;51.040;3.856;2023-05-10T19:38:11;20.90;99.90
33149;DHT22;19506;51.040;3.856;2023-05-10T19:40:37;20.90;99.90
33149;DHT22;19506;51.040;3.856;2023-05-10T19:43:02;20.80;99.90
33149;DHT22;19506;51.040;3.856;2023-05-10T19:45:28;20.80;99.90
33149;DHT22;19506;51.040;3.856;2023-05-10T19:47:54;20.70;99.90
33149;DHT22;19506;51.040;3.856;2023-05-10T19:50:19;20.70;99.90
33149;DHT22;19506;51.040;3.856;2023-05-10T19:52:45;20.80;99.90
33149;DHT22;19506;51.040;3.856;2023-05-10T19:55:25;20.80;99.90
33149;DHT22;19506;51.040;3.856;2023-05-10T19:57:52;20.80;99.90
33149;DHT22;19506;51.040;3.856;2023-05-10T20:00:17;20.80;99.90
33149;DHT22;19506;51.040;3.856;2023-05-10T20:02:43;20.80;99.90
33149;DHT22;19506;51.040;3.856;2023-05-10T20:05:09;20.70;99.90
33149;DHT22;19506;51.040;3.856;2023-05-10T20:07:35;20.70;99.90
33149;DHT22;19506;51.040;3.856;2023-05-10T20:10:01;20.70;99.90
33149;DHT22;19506;51.040;3.856;2023-05-10T20:12:27;20.60;99.90
33149;DHT22;19506;51.040;3.856;2023-05-10T20:14:53;20.70;99.90
33149;DHT22;19506;51.040;3.856;2023-05-10T20:17:18;20.60;99.90
33149;DHT22;19506;51.040;3.856;2023-05-10T20:19:44;20.60;99.90
33149;DHT22;19506;51.040;3.856;2023-05-10T20:22:10;20.50;99.90
33149;DHT22;19506;51.040;3.856;2023-05-10T20:24:35;20.60;99.90
33149;DHT22;19506;51.040;3.856;2023-05-10T20:27:01;20.60;99.90
33149;DHT22;19506;51.040;3.856;2023-05-10T20:29:29;20.60;99.90
33149;DHT22;19506;51.040;3.856;2023-05-10T20:39:13;20.50;99.90
33149;DHT22;19506;51.040;3.856;2023-05-10T20:41:39;20.60;99.90
33149;DHT22;19506;51.040;3.856;2023-05-10T20:44:05;20.60;99.90
33149;DHT22;19506;51.040;3.856;2023-05-10T20:46:31;20.70;99.90
33149;DHT22;19506;51.040;3.856;2023-05-10T20:48:57;20.70;99.90
33149;DHT22;19506;51.040;3.856;2023-05-10T20:51:23;20.70;99.90
33149;DHT22;19506;51.040;3.856;2023-05-10T20:53:48;20.70;99.90
33149;DHT22;19506;51.040;3.856;2023-05-10T20:56:14;20.70;99.90
33149;DHT22;19506;51.040;3.856;2023-05-10T20:58:40;20.70;99.90
33149;DHT22;19506;51.040;3.856;2023-05-10T21:01:05;20.60;99.90
33149;DHT22;19506;51.040;3.856;2023-05-10T21:03:31;20.60;99.90
33149;DHT22;19506;51.040;3.856;2023-05-10T21:05:57;20.60;99.90
33149;DHT22;19506;51.040;3.856;2023-05-10T21:08:22;20.70;99.90
33149;DHT22;19506;51.040;3.856;2023-05-10T21:10:48;20.60;99.90
33149;DHT22;19506;51.040;3.856;2023-05-10T21:13:14;20.60;99.90
33149;DHT22;19506;51.040;3.856;2023-05-10T21:15:40;20.60;99.90
33149;DHT22;19506;51.040;3.856;2023-05-10T21:18:05;20.60;99.90
33149;DHT22;19506;51.040;3.856;2023-05-10T21:20:31;20.60;99.90
33149;DHT22;19506;51.040;3.856;2023-05-10T21:22:57;20.60;99.90
33149;DHT22;19506;51.040;3.856;2023-05-10T21:25:22;20.60;99.90
33149;DHT22;19506;51.040;3.856;2023-05-10T21:27:48;20.60;99.90
33149;DHT22;19506;51.040;3.856;2023-05-10T21:30:14;20.60;99.90
33149;DHT22;19506;51.040;3.856;2023-05-10T21:32:39;20.60;99.90
33149;DHT22;19506;51.040;3.856;2023-05-10T21:35:05;20.60;99.90
33149;DHT22;19506;51.040;3.856;2023-05-10T21:37:31;20.60;99.90
33149;DHT22;19506;51.040;3.856;2023-05-10T21:39:57;20.50;99.90
33149;DHT22;19506;51.040;3.856;2023-05-10T21:42:22;20.50;99.90
33149;DHT22;19506;51.040;3.856;2023-05-10T21:44:48;20.50;99.90
33149;DHT22;19506;51.040;3.856;2023-05-10T21:47:14;20.50;99.90
33149;DHT22;19506;51.040;3.856;2023-05-10T21:49:39;20.50;99.90
33149;DHT22;19506;51.040;3.856;2023-05-10T21:52:05;20.50;99.90
33149;DHT22;19506;51.040;3.856;2023-05-10T21:54:31;20.50;99.90
33149;DHT22;19506;51.040;3.856;2023-05-10T21:56:57;20.50;99.90
33149;DHT22;19506;51.040;3.856;2023-05-10T21:59:23;20.50;99.90
33149;DHT22;19506;51.040;3.856;2023-05-10T22:01:48;20.50;99.90
33149;DHT22;19506;51.040;3.856;2023-05-10T22:04:16;20.50;99.90
33149;DHT22;19506;51.040;3.856;2023-05-10T22:06:42;20.50;99.90
33149;DHT22;19506;51.040;3.856;2023-05-10T22:09:07;20.40;99.90
33149;DHT22;19506;51.040;3.856;2023-05-10T22:11:34;20.50;99.90
33149;DHT22;19506;51.040;3.856;2023-05-10T22:14:00;20.40;99.90
33149;DHT22;19506;51.040;3.856;2023-05-10T22:16:25;20.40;99.90
33149;DHT22;19506;51.040;3.856;2023-05-10T22:18:51;20.40;99.90
33149;DHT22;19506;51.040;3.856;2023-05-10T22:21:18;20.40;99.90
33149;DHT22;19506;51.040;3.856;2023-05-10T22:23:44;20.40;99.90
33149;DHT22;19506;51.040;3.856;2023-05-10T22:26:10;20.40;99.90
33149;DHT22;19506;51.040;3.856;2023-05-10T22:28:36;20.40;99.90
33149;DHT22;19506;51.040;3.856;2023-05-10T22:31:02;20.40;99.90
33149;DHT22;19506;51.040;3.856;2023-05-10T22:33:28;20.40;99.90
33149;DHT22;19506;51.040;3.856;2023-05-10T22:35:53;20.40;99.90
33149;DHT22;19506;51.040;3.856;2023-05-10T22:38:19;20.40;99.90
33149;DHT22;19506;51.040;3.856;2023-05-10T22:40:45;20.40;99.90
33149;DHT22;19506;51.040;3.856;2023-05-10T22:43:10;20.40;99.90
33149;DHT22;19506;51.040;3.856;2023-05-10T22:45:36;20.40;99.90
33149;DHT22;19506;51.040;3.856;2023-05-10T22:48:03;20.40;99.90
33149;DHT22;19506;51.040;3.856;2023-05-10T22:50:30;20.40;99.90
33149;DHT22;19506;51.040;3.856;2023-05-10T22:52:55;20.40;99.90
33149;DHT22;19506;51.040;3.856;2023-05-10T22:55:21;20.40;99.90
33149;DHT22;19506;51.040;3.856;2023-05-10T22:57:47;20.40;99.90
33149;DHT22;19506;51.040;3.856;2023-05-10T23:00:13;20.30;99.90
33149;DHT22;19506;51.040;3.856;2023-05-10T23:02:39;20.30;99.90
33149;DHT22;19506;51.040;3.856;2023-05-10T23:05:05;20.30;99.90
33149;DHT22;19506;51.040;3.856;2023-05-10T23:07:31;20.30;99.90
33149;DHT22;19506;51.040;3.856;2023-05-10T23:09:57;20.30;99.90
33149;DHT22;19506;51.040;3.856;2023-05-10T23:12:22;20.30;99.90
33149;DHT22;19506;51.040;3.856;2023-05-10T23:14:48;20.30;99.90
33149;DHT22;19506;51.040;3.856;2023-05-10T23:17:15;20.30;99.90
